Combine, Texas
Current Conditions -  °F | °C
As of 12:55 AM on Thursday 23 Oct 2014 (Local Time) from KHQZ Reporting Station
Clear Clear  
Wind Chill: 66°   Ceiling: Unl
Heat Index: 66°   Visibility: 10mi
Dew Point: 52°   Wind: 5mph
Humidity: 61%   Direction: 100°E
Pressure: 30.1"   Gusts: NA
Location:  32.6388°N, 96.5631°W
Report Text: KHQZ 230555Z AUTO 10004KT 10SM CLR 19/11 A3010 RMK AO1 T01900112 10230 20190 402750134
Loading
Personal Weather Stations






























Interactive Weather Map
Tropical Storm Tracking
New forecast layout! Learn more

10-Day Weather Forecast

Advertisements
Track Severe Weather on mobile